createdAt,value
2022-12-25T00:02:11.002Z,101678.06
2022-12-25T00:05:20.817Z,101438.41
2022-12-25T00:07:55.758Z,101626.63
2022-12-25T00:13:40.316Z,101663.78
2022-12-25T00:16:13.021Z,101617.69
2022-12-25T00:18:44.476Z,101621.28
2022-12-25T00:21:12.982Z,101681.13
2022-12-25T00:23:40.643Z,101645.22
2022-12-25T00:26:11.175Z,101690.00
2022-12-25T00:28:39.065Z,101696.03
2022-12-25T00:31:14.559Z,101683.94
2022-12-25T00:33:45.046Z,101702.66
2022-12-25T00:36:14.051Z,101677.72
2022-12-25T00:38:42.161Z,101690.56
2022-12-25T00:41:12.656Z,101703.56
2022-12-25T00:43:44.491Z,101679.69
2022-12-25T00:46:13.373Z,101692.25
2022-12-25T00:48:41.542Z,101704.81
2022-12-25T00:51:11.800Z,101696.59
2022-12-25T00:56:54.718Z,101688.75
2022-12-25T00:59:23.784Z,101689.34
2022-12-25T01:01:53.601Z,101644.06
2022-12-25T01:04:24.213Z,101689.09
2022-12-25T01:06:54.938Z,101723.53
2022-12-25T01:09:43.631Z,101708.50
2022-12-25T01:12:11.059Z,101695.66
2022-12-25T01:14:38.508Z,101724.22
2022-12-25T01:17:08.555Z,101725.06
2022-12-25T01:22:24.811Z,101729.19
2022-12-25T01:24:52.074Z,101719.97
2022-12-25T01:30:12.035Z,101680.22
2022-12-25T01:32:40.583Z,101688.09
2022-12-25T01:35:08.418Z,101703.78
2022-12-25T01:37:37.514Z,101716.66
2022-12-25T01:40:07.868Z,101669.38
2022-12-25T01:42:35.817Z,101694.31
2022-12-25T01:45:35.656Z,101730.44
2022-12-25T01:48:07.451Z,101686.34
2022-12-25T01:50:48.049Z,101679.44
2022-12-25T01:53:46.286Z,101558.50
2022-12-25T01:59:45.598Z,101687.22
2022-12-25T02:02:13.132Z,101700.94
2022-12-25T02:04:54.115Z,101695.50
2022-12-25T02:07:24.611Z,101713.22
2022-12-25T02:09:53.023Z,101686.56
2022-12-25T02:12:23.962Z,101691.81
2022-12-25T02:14:59.670Z,101689.03
2022-12-25T02:18:07.870Z,101487.50
2022-12-25T02:20:44.390Z,101723.03
2022-12-25T02:23:17.517Z,101728.75
2022-12-25T02:26:12.088Z,101723.88
2022-12-25T02:29:19.785Z,101721.50
2022-12-25T02:32:04.378Z,101719.03
2022-12-25T02:37:49.044Z,101718.38
2022-12-25T02:40:19.793Z,101720.03
2022-12-25T02:43:26.286Z,101704.50
2022-12-25T02:46:25.926Z,101685.56
2022-12-25T02:49:30.068Z,101498.28
2022-12-25T02:52:33.735Z,101736.63
2022-12-25T02:55:35.323Z,101732.25
2022-12-25T02:58:35.323Z,101699.59
2022-12-25T03:01:28.444Z,101748.59
2022-12-25T03:04:18.973Z,101689.19
2022-12-25T03:07:10.812Z,101717.22
2022-12-25T03:10:27.363Z,101697.16
2022-12-25T03:13:40.157Z,101678.19
2022-12-25T03:16:34.105Z,101699.25
2022-12-25T03:19:28.823Z,101746.41
2022-12-25T03:22:17.491Z,101702.44
2022-12-25T03:25:12.988Z,101746.34
2022-12-25T03:27:49.794Z,101725.81
2022-12-25T03:30:38.817Z,101767.56
2022-12-25T03:33:45.631Z,101688.44
2022-12-25T03:36:33.843Z,101766.69
2022-12-25T03:39:36.895Z,101680.75
2022-12-25T03:42:29.735Z,101738.38
2022-12-25T03:45:26.349Z,101726.97
2022-12-25T03:48:16.810Z,101703.19
2022-12-25T03:51:17.092Z,101681.28
2022-12-25T03:54:16.552Z,101722.84
2022-12-25T03:57:08.781Z,101753.34
2022-12-25T03:59:59.540Z,101702.28
2022-12-25T04:02:48.066Z,101751.66
2022-12-25T04:05:36.179Z,101760.59
2022-12-25T04:08:27.258Z,101728.00
2022-12-25T04:11:19.158Z,101705.63
2022-12-25T04:14:09.619Z,101696.03
2022-12-25T04:17:17.879Z,101740.66
2022-12-25T04:20:09.910Z,101679.88
2022-12-25T04:23:00.468Z,101700.63
2022-12-25T04:25:50.888Z,101746.00
2022-12-25T04:28:43.091Z,101704.19
2022-12-25T04:31:37.495Z,101736.56
2022-12-25T04:34:24.409Z,101738.38
2022-12-25T04:39:48.900Z,101761.41
2022-12-25T04:42:17.284Z,101743.38
2022-12-25T04:44:45.487Z,101736.38
2022-12-25T04:47:14.340Z,101762.72
2022-12-25T04:49:42.388Z,101755.13
2022-12-25T04:52:10.108Z,101757.03
2022-12-25T04:54:39.035Z,101779.97
2022-12-25T04:57:06.506Z,101760.25
2022-12-25T04:59:34.419Z,101787.94
2022-12-25T05:02:02.452Z,101754.38
2022-12-25T05:04:30.378Z,101768.59
2022-12-25T05:06:58.055Z,101797.56
2022-12-25T05:09:26.873Z,101754.75
2022-12-25T05:11:54.305Z,101780.16
2022-12-25T05:14:22.430Z,101778.25
2022-12-25T05:16:50.659Z,101760.53
2022-12-25T05:19:19.516Z,101792.78
2022-12-25T05:21:48.744Z,101752.06
2022-12-25T05:24:16.618Z,101773.84
2022-12-25T05:26:45.504Z,101766.41
2022-12-25T05:29:14.175Z,101768.06
2022-12-25T05:31:42.243Z,101808.59
2022-12-25T05:34:09.792Z,101788.56
2022-12-25T05:36:37.669Z,101807.84
2022-12-25T05:39:05.509Z,101831.97
2022-12-25T05:41:34.644Z,101826.47
2022-12-25T05:44:04.049Z,101784.00
2022-12-25T05:46:32.229Z,101823.50
2022-12-25T05:49:00.814Z,101816.59
2022-12-25T05:51:28.640Z,101826.72
2022-12-25T05:53:56.006Z,101866.84
2022-12-25T05:56:25.862Z,101828.59
2022-12-25T05:58:55.069Z,101843.88
2022-12-25T06:01:26.818Z,101879.41
2022-12-25T06:03:55.912Z,101851.47
2022-12-25T06:06:25.694Z,101821.94
2022-12-25T06:08:55.363Z,101881.88
2022-12-25T06:11:24.868Z,101847.84
2022-12-25T06:13:53.640Z,101865.56
2022-12-25T06:16:23.992Z,101872.09
2022-12-25T06:18:52.655Z,101872.50
2022-12-25T06:21:22.256Z,101908.41
2022-12-25T06:23:50.989Z,101878.91
2022-12-25T06:26:21.865Z,101875.47
2022-12-25T06:28:52.930Z,101865.66
2022-12-25T06:31:24.020Z,101923.97
2022-12-25T06:33:51.552Z,101903.16
2022-12-25T06:36:27.783Z,101928.75
2022-12-25T06:38:59.402Z,101924.56
2022-12-25T06:41:29.487Z,101939.53
2022-12-25T06:43:59.634Z,101954.50
2022-12-25T06:46:30.706Z,101943.97
2022-12-25T06:49:02.019Z,101958.13
2022-12-25T06:51:32.279Z,101937.03
2022-12-25T06:54:05.238Z,101917.75
2022-12-25T06:56:34.400Z,101951.34
2022-12-25T06:59:08.177Z,101947.16
2022-12-25T07:01:41.936Z,101958.69
2022-12-25T07:04:16.417Z,101954.59
2022-12-25T07:06:45.509Z,101945.00
2022-12-25T07:09:14.470Z,101956.94
2022-12-25T07:11:43.222Z,101926.66
2022-12-25T07:14:23.883Z,101935.81
2022-12-25T07:16:53.728Z,101968.50
2022-12-25T07:19:23.183Z,101960.00
2022-12-25T07:21:53.775Z,101959.41
2022-12-25T07:24:22.452Z,101933.81
2022-12-25T07:26:52.568Z,101950.47
2022-12-25T07:29:20.879Z,101943.94
2022-12-25T07:31:51.220Z,101972.88
2022-12-25T07:34:22.879Z,101974.97
2022-12-25T07:36:55.161Z,101986.53
2022-12-25T07:39:25.617Z,101917.78
2022-12-25T07:41:55.509Z,101939.59
2022-12-25T07:44:27.142Z,101957.66
2022-12-25T07:46:55.174Z,101957.94
2022-12-25T07:49:24.226Z,101957.50
2022-12-25T07:51:52.820Z,101948.78
2022-12-25T07:54:22.075Z,101988.78
2022-12-25T07:56:53.412Z,101971.88
2022-12-25T07:59:23.503Z,101979.44
2022-12-25T08:02:06.702Z,102014.47
2022-12-25T08:04:36.971Z,102019.91
2022-12-25T08:07:06.029Z,102012.00
2022-12-25T08:09:35.246Z,101988.84
2022-12-25T08:12:02.680Z,101984.84
2022-12-25T08:14:32.635Z,101999.94
2022-12-25T08:17:00.122Z,102008.41
2022-12-25T08:19:27.393Z,101961.91
2022-12-25T08:21:56.732Z,101998.72
2022-12-25T08:24:24.461Z,102017.63
2022-12-25T08:26:52.062Z,102002.16
2022-12-25T08:29:20.135Z,101996.47
2022-12-25T08:31:47.406Z,102012.19
2022-12-25T08:34:14.708Z,102017.72
2022-12-25T08:36:42.063Z,102018.31
2022-12-25T08:39:09.541Z,102012.50
2022-12-25T08:41:37.019Z,101980.00
2022-12-25T08:44:05.569Z,101994.91
2022-12-25T08:46:33.290Z,102012.69
2022-12-25T08:49:00.872Z,101997.41
2022-12-25T08:51:28.747Z,101963.06
2022-12-25T08:54:00.319Z,102000.38
2022-12-25T08:56:28.595Z,102009.00
2022-12-25T08:58:55.782Z,102026.69
2022-12-25T09:01:23.131Z,102022.84
2022-12-25T09:03:50.541Z,102031.84
2022-12-25T09:06:18.070Z,102014.84
2022-12-25T09:08:49.267Z,102032.53
2022-12-25T09:11:18.725Z,101993.09
2022-12-25T09:13:46.524Z,102000.97
2022-12-25T09:16:17.033Z,101998.22
2022-12-25T09:18:44.459Z,101996.75
2022-12-25T09:21:13.422Z,101998.34
2022-12-25T09:23:41.219Z,102028.59
2022-12-25T09:26:11.983Z,102028.19
2022-12-25T09:28:39.141Z,102029.66
2022-12-25T09:31:06.681Z,102028.75
2022-12-25T09:33:34.361Z,102036.97
2022-12-25T09:36:07.285Z,102029.97
2022-12-25T09:38:35.490Z,102022.09
2022-12-25T09:41:13.168Z,102037.63
2022-12-25T09:43:46.768Z,102035.88
2022-12-25T09:46:17.910Z,102023.09
2022-12-25T09:49:01.811Z,101981.41
2022-12-25T09:51:31.685Z,102004.50
2022-12-25T09:54:05.343Z,101999.56
2022-12-25T09:56:33.461Z,102012.09
2022-12-25T09:59:00.707Z,102009.50
2022-12-25T10:01:41.799Z,102003.66
2022-12-25T10:04:21.357Z,102004.84
2022-12-25T10:07:18.789Z,102006.47
2022-12-25T10:09:52.990Z,102014.44
2022-12-25T10:12:51.498Z,101995.59
2022-12-25T10:15:52.772Z,102008.88
2022-12-25T10:18:33.894Z,102016.88
2022-12-25T10:21:13.252Z,102009.56
2022-12-25T10:23:46.305Z,101965.44
2022-12-25T10:26:19.751Z,102004.53
2022-12-25T10:28:47.977Z,102007.06
2022-12-25T10:31:27.973Z,101973.19
2022-12-25T10:34:12.884Z,102016.56
2022-12-25T10:36:42.311Z,102008.09
2022-12-25T10:39:17.732Z,101999.75
2022-12-25T10:42:11.002Z,102007.84
2022-12-25T10:44:38.284Z,102004.50
2022-12-25T10:47:05.982Z,102007.88
2022-12-25T10:49:36.883Z,101986.09
2022-12-25T10:52:04.573Z,101995.84
2022-12-25T10:54:35.722Z,101986.72
2022-12-25T10:57:16.213Z,101991.31
2022-12-25T10:59:57.884Z,101979.13
2022-12-25T11:02:36.247Z,101978.69
2022-12-25T11:05:14.596Z,101986.31
2022-12-25T11:07:51.339Z,101962.16
2022-12-25T11:10:42.781Z,101990.97
2022-12-25T11:13:49.188Z,101987.16
2022-12-25T11:16:45.825Z,101984.47
2022-12-25T11:19:31.658Z,101975.72
2022-12-25T11:22:01.341Z,101964.88
2022-12-25T11:24:31.285Z,101971.81
2022-12-25T11:27:01.613Z,101977.56
2022-12-25T11:29:38.048Z,101985.06
2022-12-25T11:32:12.939Z,101999.50
2022-12-25T11:34:46.300Z,101973.91
2022-12-25T11:37:20.355Z,101979.63
2022-12-25T11:39:47.882Z,101980.09
2022-12-25T11:42:29.869Z,101979.50
2022-12-25T11:45:26.235Z,101970.56
2022-12-25T11:47:56.428Z,101968.66
2022-12-25T11:50:32.895Z,101972.16
2022-12-25T11:53:06.919Z,101967.69
2022-12-25T11:55:44.041Z,101975.50
2022-12-25T11:58:37.812Z,101963.91
2022-12-25T12:01:17.633Z,101965.19
2022-12-25T12:03:45.389Z,101980.75
2022-12-25T12:06:36.742Z,101969.00
2022-12-25T12:09:30.570Z,101968.38
2022-12-25T12:12:06.609Z,101957.88
2022-12-25T12:14:43.258Z,101977.28
2022-12-25T12:17:13.704Z,101969.47
2022-12-25T12:19:41.189Z,101987.94
2022-12-25T12:22:27.934Z,101977.72
2022-12-25T12:25:06.757Z,101972.34
2022-12-25T12:27:39.824Z,101960.56
2022-12-25T12:30:22.267Z,101976.00
2022-12-25T12:33:01.894Z,101969.50
2022-12-25T12:35:33.910Z,101978.56
2022-12-25T12:38:06.039Z,101964.69
2022-12-25T12:40:39.413Z,101974.88
2022-12-25T12:43:23.846Z,101973.16
2022-12-25T12:46:17.164Z,101978.09
2022-12-25T12:48:47.960Z,101978.56
2022-12-25T12:51:32.071Z,101978.56
2022-12-25T12:54:21.927Z,101986.38
2022-12-25T12:56:57.383Z,101985.69
2022-12-25T12:59:25.803Z,101982.03
2022-12-25T13:02:07.599Z,101978.56
2022-12-25T13:04:43.965Z,101996.06
2022-12-25T13:07:30.465Z,102001.47
2022-12-25T13:10:12.940Z,101990.00
2022-12-25T13:12:40.199Z,101997.47
2022-12-25T13:15:13.523Z,101990.91
2022-12-25T13:17:45.281Z,101974.38
2022-12-25T13:20:31.577Z,101992.53
2022-12-25T13:22:58.750Z,101984.09
2022-12-25T13:25:26.004Z,101946.31
2022-12-25T13:27:57.726Z,101986.44
2022-12-25T13:30:25.698Z,101987.09
2022-12-25T13:32:53.203Z,101933.88
2022-12-25T13:35:22.978Z,101986.22
2022-12-25T13:37:50.648Z,101978.41
2022-12-25T13:40:28.529Z,101961.53
2022-12-25T13:42:59.773Z,101974.00
2022-12-25T13:45:29.622Z,101974.59
2022-12-25T13:47:57.509Z,101973.13
2022-12-25T13:50:31.224Z,101967.72
2022-12-25T13:53:10.612Z,101959.16
2022-12-25T13:55:38.315Z,101947.16
2022-12-25T13:58:07.431Z,101945.59
2022-12-25T14:00:40.495Z,101966.25
2022-12-25T14:03:15.309Z,101968.91
2022-12-25T14:05:43.755Z,101986.69
2022-12-25T14:08:17.711Z,101991.31
2022-12-25T14:10:48.887Z,102011.91
2022-12-25T14:13:18.104Z,102010.84
2022-12-25T14:15:48.028Z,102003.72
2022-12-25T14:18:17.566Z,102010.03
2022-12-25T14:21:05.403Z,102018.34
2022-12-25T14:23:48.446Z,102014.69
2022-12-25T14:26:33.598Z,102026.16
2022-12-25T14:29:11.133Z,102029.00
2022-12-25T14:31:45.106Z,102022.97
2022-12-25T14:34:17.999Z,102033.28
2022-12-25T14:36:45.669Z,102036.31
2022-12-25T14:39:31.464Z,102038.06
2022-12-25T14:41:59.362Z,102029.28
2022-12-25T14:44:38.968Z,102043.91
2022-12-25T14:47:14.651Z,102048.16
2022-12-25T14:49:42.360Z,102036.88
2022-12-25T14:52:38.899Z,102051.25
2022-12-25T14:55:08.170Z,102046.78
2022-12-25T14:57:40.157Z,102051.25
2022-12-25T15:00:29.376Z,102053.09
2022-12-25T15:02:58.768Z,102051.69
2022-12-25T15:05:36.785Z,102057.16
2022-12-25T15:08:04.033Z,102058.72
2022-12-25T15:10:59.597Z,102049.78
2022-12-25T15:13:19.216Z,102060.88
2022-12-25T15:16:11.838Z,102066.59
2022-12-25T15:18:43.806Z,102067.66
2022-12-25T15:21:16.179Z,102070.94
2022-12-25T15:23:44.013Z,102077.25
2022-12-25T15:26:14.977Z,102084.56
2022-12-25T15:28:42.151Z,102080.56
2022-12-25T15:31:27.851Z,102083.22
2022-12-25T15:33:56.876Z,102088.13
2022-12-25T15:36:24.392Z,102082.41
2022-12-25T15:38:52.318Z,102085.56
2022-12-25T15:41:42.953Z,102089.28
2022-12-25T15:44:12.216Z,102092.63
2022-12-25T15:46:39.936Z,102098.31
2022-12-25T15:49:07.204Z,102103.38
2022-12-25T15:51:34.713Z,102107.25
2022-12-25T15:54:02.016Z,102100.53
2022-12-25T15:56:29.780Z,102111.75
2022-12-25T15:58:57.163Z,102107.56
2022-12-25T16:01:24.361Z,102113.69
2022-12-25T16:03:51.786Z,102112.59
2022-12-25T16:06:19.226Z,102116.22
2022-12-25T16:08:46.476Z,102120.91
2022-12-25T16:11:13.839Z,102128.13
2022-12-25T16:13:41.028Z,102133.25
2022-12-25T16:16:08.522Z,102128.59
2022-12-25T16:18:35.961Z,102127.31
2022-12-25T16:21:03.253Z,102121.25
2022-12-25T16:23:31.230Z,102124.22
2022-12-25T16:25:58.873Z,102117.53
2022-12-25T16:28:26.543Z,102119.75
2022-12-25T16:30:55.105Z,102126.50
2022-12-25T16:33:22.385Z,102105.75
2022-12-25T16:35:51.493Z,102122.78
2022-12-25T16:38:19.362Z,102141.63
2022-12-25T16:40:55.654Z,102128.44
2022-12-25T16:43:24.300Z,102145.78
2022-12-25T16:45:52.071Z,102149.19
2022-12-25T16:48:19.353Z,102151.53
2022-12-25T16:50:46.480Z,102137.53
2022-12-25T16:53:13.783Z,102151.59
2022-12-25T16:55:40.923Z,102148.88
2022-12-25T16:58:08.183Z,102156.09
2022-12-25T17:00:35.585Z,102153.59
2022-12-25T17:03:02.851Z,102161.34
2022-12-25T17:05:30.228Z,102168.44
2022-12-25T17:07:59.513Z,102168.09
2022-12-25T17:10:26.701Z,102177.78
2022-12-25T17:12:53.932Z,102165.00
2022-12-25T17:15:22.678Z,102165.25
2022-12-25T17:17:50.195Z,102139.28
2022-12-25T17:20:17.363Z,102147.38
2022-12-25T17:22:44.645Z,102150.94
2022-12-25T17:25:11.831Z,102157.38
2022-12-25T17:27:39.067Z,102166.13
2022-12-25T17:30:09.422Z,102160.59
2022-12-25T17:32:36.585Z,102166.66
2022-12-25T17:35:03.944Z,102170.59
2022-12-25T17:37:32.160Z,102162.50
2022-12-25T17:39:59.414Z,102162.78
2022-12-25T17:42:26.594Z,102169.63
2022-12-25T17:44:53.863Z,102157.53
2022-12-25T17:47:21.211Z,102172.41
2022-12-25T17:49:48.523Z,102160.84
2022-12-25T17:52:15.731Z,102154.16
2022-12-25T17:54:42.933Z,102156.69
2022-12-25T17:57:10.258Z,102151.81
2022-12-25T17:59:37.615Z,102160.44
2022-12-25T18:02:05.545Z,102148.06
2022-12-25T18:04:33.342Z,102150.78
2022-12-25T18:07:00.955Z,102162.34
2022-12-25T18:09:28.318Z,102155.94
2022-12-25T18:11:55.910Z,102152.06
2022-12-25T18:14:23.151Z,102159.59
2022-12-25T18:16:51.990Z,102168.16
2022-12-25T18:19:19.862Z,102166.25
2022-12-25T18:21:47.079Z,102163.78
2022-12-25T18:24:14.356Z,102176.53
2022-12-25T18:26:41.477Z,102174.50
2022-12-25T18:29:08.839Z,102123.59
2022-12-25T18:31:36.223Z,102170.84
2022-12-25T18:34:03.946Z,102176.78
2022-12-25T18:36:31.755Z,102167.91
2022-12-25T18:38:59.513Z,102165.34
2022-12-25T18:41:28.838Z,102173.00
2022-12-25T18:43:56.410Z,102165.69
2022-12-25T18:46:25.757Z,102162.56
2022-12-25T18:48:55.179Z,102160.94
2022-12-25T18:51:22.581Z,102137.31
2022-12-25T18:53:49.841Z,102173.03
2022-12-25T18:56:18.286Z,102166.81
2022-12-25T18:58:46.701Z,102167.91
2022-12-25T19:01:19.632Z,102162.72
2022-12-25T19:03:49.320Z,102181.53
2022-12-25T19:06:19.849Z,102167.50
2022-12-25T19:08:47.491Z,102177.72
2022-12-25T19:11:14.976Z,102172.78
2022-12-25T19:13:42.606Z,102171.16
2022-12-25T19:16:10.295Z,102167.84
2022-12-25T19:18:38.116Z,102179.81
2022-12-25T19:21:07.182Z,102179.34
2022-12-25T19:23:35.301Z,102176.00
2022-12-25T19:26:05.717Z,102176.47
2022-12-25T19:28:33.010Z,102174.91
2022-12-25T19:31:01.806Z,102175.66
2022-12-25T19:33:31.674Z,102173.31
2022-12-25T19:36:11.182Z,102182.94
2022-12-25T19:38:38.841Z,102189.34
2022-12-25T19:41:08.014Z,102189.81
2022-12-25T19:43:40.796Z,102179.38
2022-12-25T19:46:14.469Z,102198.41
2022-12-25T19:48:41.739Z,102207.34
2022-12-25T19:51:22.072Z,102184.88
2022-12-25T19:53:49.724Z,102200.91
2022-12-25T19:56:17.238Z,102195.88
2022-12-25T19:58:45.463Z,102193.22
2022-12-25T20:01:17.066Z,102204.50
2022-12-25T20:03:48.198Z,102202.09
2022-12-25T20:06:22.180Z,102200.09
2022-12-25T20:09:00.972Z,102206.19
2022-12-25T20:11:30.498Z,102204.63
2022-12-25T20:13:58.529Z,102200.97
2022-12-25T20:16:26.619Z,102193.78
2022-12-25T20:18:54.089Z,102194.56
2022-12-25T20:21:22.915Z,102201.53
2022-12-25T20:23:52.241Z,102206.06
2022-12-25T20:26:21.667Z,102194.72
2022-12-25T20:28:49.111Z,102179.81
2022-12-25T20:31:27.400Z,102182.97
2022-12-25T20:33:56.624Z,102193.50
2022-12-25T20:36:24.426Z,102160.53
2022-12-25T20:38:52.997Z,102178.25
2022-12-25T20:41:26.954Z,102189.63
2022-12-25T20:43:55.661Z,102180.38
2022-12-25T20:46:23.143Z,102182.47
2022-12-25T20:48:50.517Z,102185.44
2022-12-25T20:51:20.271Z,102190.09
2022-12-25T20:53:48.122Z,102174.09
2022-12-25T20:56:20.153Z,102200.22
2022-12-25T20:58:50.915Z,102193.84
2022-12-25T21:01:22.118Z,102142.91
2022-12-25T21:03:51.075Z,102164.41
2022-12-25T21:06:20.047Z,102218.44
2022-12-25T21:08:51.489Z,102167.75
2022-12-25T21:11:24.428Z,102221.94
2022-12-25T21:13:52.214Z,102134.41
2022-12-25T21:16:22.321Z,102210.56
2022-12-25T21:18:52.348Z,102211.13
2022-12-25T21:21:20.941Z,102196.59
2022-12-25T21:23:48.340Z,102194.97
2022-12-25T21:26:25.918Z,102199.75
2022-12-25T21:28:56.301Z,102195.69
2022-12-25T21:31:26.005Z,102185.41
2022-12-25T21:33:55.316Z,102213.50
2022-12-25T21:36:27.598Z,102208.94
2022-12-25T21:39:08.067Z,102196.84
2022-12-25T21:41:43.186Z,102179.91
2022-12-25T21:48:01.535Z,102216.59
2022-12-25T21:50:50.835Z,102185.66
2022-12-25T21:53:19.586Z,102206.34
2022-12-25T21:56:02.600Z,102221.59
2022-12-25T21:58:30.180Z,102197.50
2022-12-25T22:01:03.390Z,102175.31
2022-12-25T22:03:47.210Z,102170.06
2022-12-25T22:06:47.472Z,102214.75
2022-12-25T22:09:51.305Z,102200.63
2022-12-25T22:12:38.837Z,102169.31
2022-12-25T22:15:07.722Z,102201.41
2022-12-25T22:18:02.293Z,102201.41
2022-12-25T22:20:34.744Z,102179.72
2022-12-25T22:23:02.322Z,102181.44
2022-12-25T22:25:29.753Z,102208.38
2022-12-25T22:27:58.204Z,102195.47
2022-12-25T22:33:59.043Z,102194.28
2022-12-25T22:36:26.916Z,102205.47
2022-12-25T22:38:54.805Z,102163.59
2022-12-25T22:41:33.462Z,102197.41
2022-12-25T22:44:17.056Z,102159.72
2022-12-25T22:46:57.820Z,102161.34
2022-12-25T22:49:28.406Z,102164.63
2022-12-25T22:51:56.687Z,102177.91
2022-12-25T22:54:24.842Z,102208.03
2022-12-25T22:56:55.671Z,102183.16
2022-12-25T22:59:23.609Z,102181.56
2022-12-25T23:01:51.590Z,102181.66
2022-12-25T23:04:19.983Z,102186.06
2022-12-25T23:06:47.983Z,102209.78
2022-12-25T23:09:24.336Z,102212.22
2022-12-25T23:11:58.097Z,102199.44
2022-12-25T23:14:40.767Z,102141.50
2022-12-25T23:17:32.502Z,102217.91
2022-12-25T23:20:22.645Z,102226.00
2022-12-25T23:23:12.078Z,102238.50
2022-12-25T23:25:58.302Z,102213.13
2022-12-25T23:28:45.723Z,102214.38
2022-12-25T23:31:17.492Z,102228.06
2022-12-25T23:33:50.902Z,102157.31
2022-12-25T23:36:19.440Z,102138.38
2022-12-25T23:38:46.855Z,102224.13
2022-12-25T23:41:17.033Z,102217.69
2022-12-25T23:43:46.480Z,102196.78
2022-12-25T23:46:16.485Z,102223.00
2022-12-25T23:48:49.668Z,102183.53
2022-12-25T23:51:18.781Z,102233.88
2022-12-25T23:53:51.007Z,102219.75
2022-12-25T23:56:19.340Z,102247.97
2022-12-25T23:58:53.135Z,102211.72
